Time;durP1;ratioP1;P1;durP2;ratioP2;P2;SDS_P1;SDS_P2;PMS_P1;PMS_P2;Temp;Humidity;BMP_temperature;BMP_pressure;BME280_temperature;BME280_humidity;BME280_pressure;Samples;Min_cycle;Max_cycle;Signal;HPM_P1;HPM_P2
2022/07/23 00:01:36;;;;;;;3.42;1.23;;;;;;;;;;4964998;28;20177;-63
2022/07/23 00:04:03;;;;;;;4.80;1.30;;;;;;;;;;4963792;28;20547;-63
2022/07/23 00:06:29;;;;;;;5.35;1.50;;;;;;;;;;4968025;28;20097;-63
2022/07/23 00:08:56;;;;;;;3.33;1.08;;;;;;;;;;4969336;28;20467;-63
2022/07/23 00:11:23;;;;;;;8.13;1.52;;;;;;;;;;4968265;28;20046;-63
2022/07/23 00:13:49;;;;;;;7.35;1.60;;;;;;;;;;4969998;28;20061;-62
2022/07/23 00:16:16;;;;;;;4.40;1.13;;;;;;;;;;4970304;28;20061;-63
2022/07/23 00:18:42;;;;;;;5.57;1.40;;;;;;;;;;4969231;28;20205;-63
2022/07/23 00:21:09;;;;;;;3.33;1.10;;;;;;;;;;4969747;28;20050;-63
2022/07/23 00:23:36;;;;;;;3.67;1.23;;;;;;;;;;4968865;28;20434;-62
2022/07/23 00:26:02;;;;;;;3.80;1.05;;;;;;;;;;4968281;28;20395;-62
2022/07/23 00:28:29;;;;;;;4.93;1.30;;;;;;;;;;4969986;28;20121;-62
2022/07/23 00:30:56;;;;;;;4.88;0.90;;;;;;;;;;4969464;28;20402;-64
2022/07/23 00:33:22;;;;;;;5.05;1.40;;;;;;;;;;4969429;28;20519;-64
2022/07/23 00:35:49;;;;;;;3.08;1.10;;;;;;;;;;4968136;28;20116;-64
2022/07/23 00:38:15;;;;;;;2.95;1.08;;;;;;;;;;4939699;28;20048;-64
2022/07/23 00:40:42;;;;;;;4.60;1.20;;;;;;;;;;4969578;28;20043;-65
2022/07/23 00:43:09;;;;;;;3.50;1.05;;;;;;;;;;4969869;28;20554;-64
2022/07/23 00:45:35;;;;;;;4.03;1.05;;;;;;;;;;4968918;28;20545;-64
2022/07/23 00:48:02;;;;;;;3.72;1.20;;;;;;;;;;4970340;28;20073;-64
2022/07/23 00:50:28;;;;;;;2.60;0.82;;;;;;;;;;4968516;28;21718;-64
2022/07/23 00:52:55;;;;;;;2.70;0.80;;;;;;;;;;4970029;28;20129;-63
2022/07/23 00:55:22;;;;;;;1.98;0.70;;;;;;;;;;4969408;28;20034;-63
2022/07/23 00:57:49;;;;;;;2.85;0.95;;;;;;;;;;4968819;28;20097;-62
2022/07/23 01:00:16;;;;;;;7.47;3.33;;;;;;;;;;4969833;28;20035;-62
2022/07/23 01:02:43;;;;;;;2.10;0.82;;;;;;;;;;4968427;28;20038;-62
2022/07/23 01:05:10;;;;;;;3.67;0.98;;;;;;;;;;4966375;28;20082;-62
2022/07/23 01:07:36;;;;;;;2.78;0.95;;;;;;;;;;4967431;28;20046;-62
2022/07/23 01:10:03;;;;;;;3.22;1.00;;;;;;;;;;4951269;28;20066;-62
2022/07/23 01:12:30;;;;;;;5.18;2.17;;;;;;;;;;4968178;28;20046;-63
2022/07/23 01:15:00;;;;;;;4.70;1.83;;;;;;;;;;4966682;28;20054;-63
2022/07/23 01:17:27;;;;;;;3.50;1.02;;;;;;;;;;4967519;28;20142;-63
2022/07/23 01:19:54;;;;;;;4.18;1.20;;;;;;;;;;4968308;28;20081;-62
2022/07/23 01:22:21;;;;;;;3.53;1.27;;;;;;;;;;4969691;28;20042;-61
2022/07/23 01:24:48;;;;;;;4.20;1.10;;;;;;;;;;4937598;28;20146;-62
2022/07/23 01:27:17;;;;;;;2.60;1.00;;;;;;;;;;4970115;28;20082;-62
2022/07/23 01:29:44;;;;;;;2.97;1.00;;;;;;;;;;4966889;28;20074;-61
2022/07/23 01:32:10;;;;;;;2.60;0.95;;;;;;;;;;4964693;28;20097;-60
2022/07/23 01:34:37;;;;;;;3.65;1.27;;;;;;;;;;4957632;28;20038;-61
2022/07/23 01:37:03;;;;;;;2.83;0.90;;;;;;;;;;4966368;28;20078;-63
2022/07/23 01:39:30;;;;;;;2.45;0.90;;;;;;;;;;4968826;28;20050;-62
2022/07/23 01:41:56;;;;;;;7.00;1.17;;;;;;;;;;4969721;28;20042;-62
2022/07/23 01:44:23;;;;;;;3.67;0.90;;;;;;;;;;4968135;28;20042;-62
2022/07/23 01:46:50;;;;;;;2.63;1.00;;;;;;;;;;4968636;28;20562;-61
2022/07/23 01:49:16;;;;;;;2.88;1.00;;;;;;;;;;4951237;28;20140;-61
2022/07/23 01:51:59;;;;;;;3.05;0.80;;;;;;;;;;4968638;28;20448;-62
2022/07/23 01:54:26;;;;;;;3.10;1.10;;;;;;;;;;4966510;28;20094;-62
2022/07/23 01:56:53;;;;;;;2.83;0.80;;;;;;;;;;4967543;28;20510;-61
2022/07/23 01:59:20;;;;;;;5.35;0.90;;;;;;;;;;4968985;28;20188;-62
2022/07/23 02:01:46;;;;;;;2.58;0.80;;;;;;;;;;4966972;28;20062;-63
2022/07/23 02:04:13;;;;;;;3.05;1.00;;;;;;;;;;4966726;28;20082;-62
2022/07/23 02:06:39;;;;;;;2.38;0.77;;;;;;;;;;4948537;28;20045;-63
2022/07/23 02:09:06;;;;;;;3.22;1.17;;;;;;;;;;4967184;28;20077;-62
2022/07/23 02:11:32;;;;;;;2.85;0.80;;;;;;;;;;4969279;28;20126;-62
2022/07/23 02:13:59;;;;;;;2.65;0.90;;;;;;;;;;4965647;28;20158;-62
2022/07/23 02:16:26;;;;;;;3.80;0.90;;;;;;;;;;4966254;28;20070;-62
2022/07/23 02:18:52;;;;;;;2.33;0.90;;;;;;;;;;4968191;28;20488;-61
2022/07/23 02:21:19;;;;;;;2.95;0.93;;;;;;;;;;4968902;28;20039;-62
2022/07/23 02:23:45;;;;;;;2.67;1.00;;;;;;;;;;4966152;28;20097;-61
2022/07/23 02:26:13;;;;;;;4.75;0.90;;;;;;;;;;4966229;28;20034;-62
2022/07/23 02:28:39;;;;;;;2.67;1.05;;;;;;;;;;4964425;28;20043;-63
2022/07/23 02:31:06;;;;;;;2.67;0.80;;;;;;;;;;4966676;28;20066;-63
2022/07/23 02:33:33;;;;;;;2.70;1.00;;;;;;;;;;4965602;28;20038;-62
2022/07/23 02:36:00;;;;;;;2.97;1.10;;;;;;;;;;4966674;28;20054;-61
2022/07/23 02:38:27;;;;;;;2.40;0.90;;;;;;;;;;4967226;28;20055;-63
2022/07/23 02:40:53;;;;;;;3.00;1.10;;;;;;;;;;4936498;28;20074;-63
2022/07/23 02:43:20;;;;;;;3.03;1.20;;;;;;;;;;4965876;28;20112;-64
2022/07/23 02:45:47;;;;;;;5.03;0.98;;;;;;;;;;4968599;28;20138;-62
2022/07/23 02:48:13;;;;;;;6.32;1.20;;;;;;;;;;4968610;28;20172;-63
2022/07/23 02:50:40;;;;;;;3.28;1.10;;;;;;;;;;4967140;28;20066;-63
2022/07/23 02:53:07;;;;;;;3.78;1.17;;;;;;;;;;4967826;28;20046;-63
2022/07/23 02:55:33;;;;;;;2.80;1.05;;;;;;;;;;4967152;28;20039;-63
2022/07/23 02:58:02;;;;;;;4.82;1.40;;;;;;;;;;4967757;28;20057;-64
2022/07/23 03:00:29;;;;;;;3.80;1.10;;;;;;;;;;4966926;28;20043;-65
2022/07/23 03:02:55;;;;;;;5.40;1.50;;;;;;;;;;4967902;28;20054;-63
2022/07/23 03:05:22;;;;;;;4.85;1.60;;;;;;;;;;4949793;28;20038;-63
2022/07/23 03:07:48;;;;;;;3.88;1.40;;;;;;;;;;4966379;28;20054;-64
2022/07/23 03:10:15;;;;;;;4.55;1.30;;;;;;;;;;4969722;28;20042;-63
2022/07/23 03:12:41;;;;;;;3.15;1.27;;;;;;;;;;4967637;28;20129;-63
2022/07/23 03:15:08;;;;;;;3.45;1.17;;;;;;;;;;4967750;28;20141;-63
2022/07/23 03:17:35;;;;;;;4.72;1.30;;;;;;;;;;4965295;28;20051;-63
2022/07/23 03:20:02;;;;;;;4.18;1.40;;;;;;;;;;4966483;28;20082;-63
2022/07/23 03:22:28;;;;;;;3.17;1.27;;;;;;;;;;4966299;28;20557;-63
2022/07/23 03:24:55;;;;;;;4.55;1.55;;;;;;;;;;4966503;28;20118;-63
2022/07/23 03:27:22;;;;;;;4.93;1.30;;;;;;;;;;4965024;28;20058;-63
2022/07/23 03:29:50;;;;;;;4.88;1.48;;;;;;;;;;4968821;28;20042;-63
2022/07/23 03:32:17;;;;;;;4.60;1.35;;;;;;;;;;4966118;28;20671;-61
2022/07/23 03:34:44;;;;;;;4.38;1.52;;;;;;;;;;4964204;28;20042;-64
2022/07/23 03:37:10;;;;;;;5.72;1.48;;;;;;;;;;4965358;28;20057;-62
2022/07/23 03:39:37;;;;;;;3.67;1.27;;;;;;;;;;4967035;28;20038;-64
2022/07/23 03:42:04;;;;;;;3.45;1.50;;;;;;;;;;4971274;28;20066;-63
2022/07/23 03:44:30;;;;;;;4.72;2.38;;;;;;;;;;4969896;28;20193;-63
2022/07/23 03:46:57;;;;;;;6.60;3.17;;;;;;;;;;4971645;28;20034;-62
2022/07/23 03:49:23;;;;;;;6.05;2.85;;;;;;;;;;4969556;28;20134;-64
2022/07/23 03:51:50;;;;;;;6.05;1.95;;;;;;;;;;4955863;28;20046;-62
2022/07/23 03:54:17;;;;;;;4.40;1.60;;;;;;;;;;4970951;28;20074;-61
2022/07/23 03:56:44;;;;;;;6.25;3.00;;;;;;;;;;4968976;28;20064;-64
2022/07/23 03:59:10;;;;;;;4.15;1.65;;;;;;;;;;4972175;28;20063;-60
2022/07/23 04:01:37;;;;;;;4.95;1.73;;;;;;;;;;4969482;28;20531;-63
2022/07/23 04:04:04;;;;;;;4.50;1.42;;;;;;;;;;4969468;28;20073;-62
2022/07/23 04:06:30;;;;;;;6.07;1.60;;;;;;;;;;4969672;28;20169;-60
2022/07/23 04:08:57;;;;;;;4.47;1.45;;;;;;;;;;4970774;28;20102;-60
2022/07/23 04:11:23;;;;;;;5.28;2.00;;;;;;;;;;4969271;28;20078;-62
2022/07/23 04:13:50;;;;;;;9.80;1.95;;;;;;;;;;4971101;28;20046;-60
2022/07/23 04:16:16;;;;;;;6.70;1.50;;;;;;;;;;4969075;28;20051;-62
2022/07/23 04:18:43;;;;;;;4.75;1.38;;;;;;;;;;4952018;28;20185;-61
2022/07/23 04:21:10;;;;;;;4.97;1.40;;;;;;;;;;4969409;28;20095;-60
2022/07/23 04:23:36;;;;;;;3.47;1.35;;;;;;;;;;4969667;28;20086;-61
2022/07/23 04:26:03;;;;;;;3.53;1.23;;;;;;;;;;4968993;28;20089;-62
2022/07/23 04:28:29;;;;;;;2.80;1.20;;;;;;;;;;4969098;28;21867;-62
2022/07/23 04:30:59;;;;;;;2.90;1.27;;;;;;;;;;4968547;28;20034;-63
2022/07/23 04:33:26;;;;;;;4.50;1.10;;;;;;;;;;4951755;28;20043;-62
2022/07/23 04:35:53;;;;;;;6.32;1.45;;;;;;;;;;4969752;28;20050;-63
2022/07/23 04:38:19;;;;;;;3.30;1.20;;;;;;;;;;4971150;28;20345;-63
2022/07/23 04:40:46;;;;;;;3.28;1.33;;;;;;;;;;4967714;28;20069;-63
2022/07/23 04:43:12;;;;;;;5.30;1.50;;;;;;;;;;4970582;28;20034;-63
2022/07/23 04:45:39;;;;;;;4.07;1.25;;;;;;;;;;4968287;28;20054;-63
2022/07/23 04:48:05;;;;;;;4.65;1.58;;;;;;;;;;4969016;28;20046;-62
2022/07/23 04:50:32;;;;;;;5.25;1.60;;;;;;;;;;4968580;28;20094;-63
2022/07/23 04:52:59;;;;;;;3.38;1.30;;;;;;;;;;4968037;28;20050;-61
2022/07/23 04:55:25;;;;;;;5.85;1.48;;;;;;;;;;4967766;28;20047;-62
2022/07/23 04:57:52;;;;;;;3.53;1.10;;;;;;;;;;4969191;28;20058;-62
2022/07/23 05:00:18;;;;;;;3.33;1.15;;;;;;;;;;4969164;28;20034;-62
2022/07/23 05:02:45;;;;;;;3.70;1.40;;;;;;;;;;4968074;28;20089;-63
2022/07/23 05:05:11;;;;;;;3.85;1.33;;;;;;;;;;4969113;28;20081;-63
2022/07/23 05:07:38;;;;;;;4.82;1.50;;;;;;;;;;4968933;28;20122;-63
2022/07/23 05:10:05;;;;;;;3.67;1.38;;;;;;;;;;4969892;28;20046;-63
2022/07/23 05:12:32;;;;;;;3.38;1.33;;;;;;;;;;4968668;28;20049;-63
2022/07/23 05:14:59;;;;;;;3.63;1.40;;;;;;;;;;4968683;28;20101;-63
2022/07/23 05:17:26;;;;;;;3.47;1.33;;;;;;;;;;4967820;28;20054;-64
2022/07/23 05:19:52;;;;;;;4.35;1.38;;;;;;;;;;4970615;28;20412;-62
2022/07/23 05:22:19;;;;;;;4.03;1.50;;;;;;;;;;4968576;28;20050;-63
2022/07/23 05:24:45;;;;;;;5.47;1.50;;;;;;;;;;4963689;28;20121;-62
2022/07/23 05:27:12;;;;;;;6.15;1.30;;;;;;;;;;4967799;28;20062;-62
2022/07/23 05:29:38;;;;;;;3.20;1.33;;;;;;;;;;4967456;28;20053;-63
2022/07/23 05:32:05;;;;;;;4.82;1.52;;;;;;;;;;4951675;28;20054;-62
2022/07/23 05:34:32;;;;;;;3.72;1.40;;;;;;;;;;4966190;28;20047;-62
2022/07/23 05:36:58;;;;;;;7.25;1.90;;;;;;;;;;4966800;28;20142;-62
2022/07/23 05:39:25;;;;;;;4.82;1.50;;;;;;;;;;4967536;28;20499;-62
2022/07/23 05:41:51;;;;;;;3.25;1.50;;;;;;;;;;4967459;28;20503;-62
2022/07/23 05:44:18;;;;;;;4.90;1.75;;;;;;;;;;4966700;28;20050;-62
2022/07/23 05:46:45;;;;;;;3.38;1.42;;;;;;;;;;4967019;28;20132;-61
2022/07/23 05:49:11;;;;;;;4.95;1.73;;;;;;;;;;4966430;28;20034;-62
2022/07/23 05:51:38;;;;;;;4.30;1.58;;;;;;;;;;4965226;28;20039;-62
2022/07/23 05:54:04;;;;;;;3.92;1.33;;;;;;;;;;4967206;28;20058;-62
2022/07/23 05:56:31;;;;;;;3.22;1.35;;;;;;;;;;4966039;28;20177;-60
2022/07/23 05:58:57;;;;;;;5.03;1.70;;;;;;;;;;4968413;28;20042;-62
2022/07/23 06:01:24;;;;;;;3.25;1.48;;;;;;;;;;4965845;28;20038;-62
2022/07/23 06:03:51;;;;;;;5.90;1.67;;;;;;;;;;4967619;28;20053;-62
2022/07/23 06:06:17;;;;;;;4.00;1.55;;;;;;;;;;4950735;28;20089;-61
2022/07/23 06:08:44;;;;;;;4.28;1.70;;;;;;;;;;4967188;28;20047;-61
2022/07/23 06:11:10;;;;;;;3.88;1.50;;;;;;;;;;4966115;28;20145;-61
2022/07/23 06:13:37;;;;;;;3.45;1.35;;;;;;;;;;4966510;28;20093;-62
2022/07/23 06:16:04;;;;;;;3.60;1.45;;;;;;;;;;4966990;28;20079;-61
2022/07/23 06:18:30;;;;;;;6.68;1.58;;;;;;;;;;4965672;28;20062;-61
2022/07/23 06:20:57;;;;;;;3.33;1.55;;;;;;;;;;4965551;28;20574;-60
2022/07/23 06:23:23;;;;;;;6.90;1.50;;;;;;;;;;4965298;28;21046;-61
2022/07/23 06:25:50;;;;;;;3.05;1.25;;;;;;;;;;4965744;28;20047;-61
2022/07/23 06:28:16;;;;;;;4.20;1.60;;;;;;;;;;4967112;28;20141;-61
2022/07/23 06:30:43;;;;;;;4.43;1.73;;;;;;;;;;4965474;28;20031;-61
2022/07/23 06:33:11;;;;;;;3.42;1.40;;;;;;;;;;4966567;28;20054;-60
2022/07/23 06:35:37;;;;;;;3.42;1.42;;;;;;;;;;4966074;28;20109;-60
2022/07/23 06:38:04;;;;;;;7.20;1.48;;;;;;;;;;4966216;28;20042;-60
2022/07/23 06:40:31;;;;;;;3.75;1.40;;;;;;;;;;4965577;28;20062;-61
2022/07/23 06:42:57;;;;;;;3.83;1.48;;;;;;;;;;4965171;28;20117;-61
2022/07/23 06:45:24;;;;;;;4.32;1.50;;;;;;;;;;4965918;28;21266;-61
2022/07/23 06:47:50;;;;;;;4.63;1.30;;;;;;;;;;4966288;28;20095;-61
2022/07/23 06:50:17;;;;;;;3.10;1.42;;;;;;;;;;4967121;28;20034;-61
2022/07/23 06:52:44;;;;;;;3.35;1.45;;;;;;;;;;4967145;28;20472;-61
2022/07/23 06:55:10;;;;;;;3.00;1.33;;;;;;;;;;4966029;28;20046;-61
2022/07/23 06:57:37;;;;;;;6.00;1.60;;;;;;;;;;4967387;28;20046;-60
2022/07/23 07:00:04;;;;;;;5.63;1.35;;;;;;;;;;4966462;28;20058;-60
2022/07/23 07:02:31;;;;;;;5.45;1.20;;;;;;;;;;4966587;28;20129;-61
2022/07/23 07:04:57;;;;;;;4.32;1.77;;;;;;;;;;4965795;28;20042;-61
2022/07/23 07:07:24;;;;;;;4.88;1.52;;;;;;;;;;4966308;28;20034;-61
2022/07/23 07:09:50;;;;;;;4.30;1.90;;;;;;;;;;4965777;28;20058;-61
2022/07/23 07:12:17;;;;;;;4.63;1.80;;;;;;;;;;4966396;28;20046;-61
2022/07/23 07:14:43;;;;;;;3.80;1.73;;;;;;;;;;4965344;28;20803;-61
2022/07/23 07:17:13;;;;;;;4.18;1.90;;;;;;;;;;4967000;28;20049;-62
2022/07/23 07:19:39;;;;;;;3.72;1.73;;;;;;;;;;4965492;28;20431;-61
2022/07/23 07:22:06;;;;;;;3.30;1.60;;;;;;;;;;4965500;28;20479;-61
2022/07/23 07:24:33;;;;;;;5.63;1.63;;;;;;;;;;4964283;28;20051;-62
2022/07/23 07:26:59;;;;;;;4.43;1.70;;;;;;;;;;4965314;28;20105;-62
2022/07/23 07:29:26;;;;;;;3.40;1.63;;;;;;;;;;4966183;28;20050;-61
2022/07/23 07:31:53;;;;;;;5.85;1.70;;;;;;;;;;4965040;28;20587;-61
2022/07/23 07:34:20;;;;;;;3.42;1.45;;;;;;;;;;4965277;28;20073;-60
2022/07/23 07:36:46;;;;;;;4.90;1.67;;;;;;;;;;4965087;28;20100;-61
2022/07/23 07:39:14;;;;;;;4.05;1.60;;;;;;;;;;4967633;28;20042;-61
2022/07/23 07:41:40;;;;;;;3.70;1.63;;;;;;;;;;4966673;28;20045;-61
2022/07/23 07:44:07;;;;;;;3.75;1.45;;;;;;;;;;4964940;28;20042;-61
2022/07/23 07:46:34;;;;;;;5.55;1.60;;;;;;;;;;4965334;28;20039;-61
2022/07/23 07:49:00;;;;;;;4.43;1.50;;;;;;;;;;4965904;28;20951;-61
2022/07/23 07:51:28;;;;;;;3.50;1.40;;;;;;;;;;4965532;28;20515;-62
2022/07/23 07:53:55;;;;;;;3.95;1.60;;;;;;;;;;4965607;28;20137;-61
2022/07/23 07:56:21;;;;;;;5.75;1.60;;;;;;;;;;4964760;28;20531;-61
2022/07/23 07:58:48;;;;;;;4.13;1.85;;;;;;;;;;4964534;28;20096;-60
2022/07/23 08:01:14;;;;;;;3.22;1.40;;;;;;;;;;4966377;28;20523;-60
2022/07/23 08:03:41;;;;;;;6.68;1.70;;;;;;;;;;4965438;28;20078;-61
2022/07/23 08:06:08;;;;;;;4.45;1.33;;;;;;;;;;4964908;28;20129;-61
2022/07/23 08:08:34;;;;;;;3.42;1.42;;;;;;;;;;4964939;28;20089;-61
2022/07/23 08:11:01;;;;;;;5.75;1.33;;;;;;;;;;4966788;28;20039;-61
2022/07/23 08:13:27;;;;;;;3.25;1.52;;;;;;;;;;4965702;28;20043;-61
2022/07/23 08:15:54;;;;;;;5.15;1.50;;;;;;;;;;4964643;28;20066;-61
2022/07/23 08:18:20;;;;;;;4.93;1.67;;;;;;;;;;4964997;28;20400;-61
2022/07/23 08:20:47;;;;;;;3.47;1.48;;;;;;;;;;4964927;28;20043;-61
2022/07/23 08:23:14;;;;;;;4.25;1.80;;;;;;;;;;4966631;28;20078;-61
2022/07/23 08:25:42;;;;;;;3.70;1.52;;;;;;;;;;4964532;28;20047;-61
2022/07/23 08:28:10;;;;;;;4.45;1.75;;;;;;;;;;4969346;28;20046;-61
2022/07/23 08:30:38;;;;;;;4.25;1.50;;;;;;;;;;4969061;28;20038;-62
2022/07/23 08:33:11;;;;;;;5.80;1.98;;;;;;;;;;4969458;28;20038;-62
2022/07/23 08:35:38;;;;;;;4.72;1.77;;;;;;;;;;4967101;28;20053;-61
2022/07/23 08:38:06;;;;;;;4.22;1.35;;;;;;;;;;4968952;28;20031;-62
2022/07/23 08:40:34;;;;;;;5.53;1.50;;;;;;;;;;4968905;28;20046;-62
2022/07/23 08:43:05;;;;;;;3.90;1.70;;;;;;;;;;4967661;28;20046;-62
2022/07/23 08:45:36;;;;;;;3.67;1.70;;;;;;;;;;4967432;28;20542;-61
2022/07/23 08:48:02;;;;;;;3.88;1.55;;;;;;;;;;4969821;28;20042;-61
2022/07/23 08:50:29;;;;;;;4.28;1.77;;;;;;;;;;4967837;28;20045;-62
2022/07/23 08:52:57;;;;;;;3.35;1.73;;;;;;;;;;4969143;28;20034;-62
2022/07/23 08:55:24;;;;;;;4.05;1.75;;;;;;;;;;4967517;28;20038;-61
2022/07/23 08:57:52;;;;;;;4.60;1.90;;;;;;;;;;4971516;28;20047;-62
2022/07/23 09:00:20;;;;;;;4.60;1.83;;;;;;;;;;4971149;28;20035;-61
2022/07/23 09:02:46;;;;;;;4.15;1.70;;;;;;;;;;4970342;28;20112;-61
2022/07/23 09:05:13;;;;;;;10.98;1.98;;;;;;;;;;4970967;28;20046;-61
2022/07/23 09:07:59;;;;;;;4.05;1.90;;;;;;;;;;4969965;28;20046;-62
2022/07/23 09:10:25;;;;;;;4.53;2.00;;;;;;;;;;4968406;28;20109;-62
2022/07/23 09:12:52;;;;;;;4.10;1.95;;;;;;;;;;4969837;28;20038;-61
2022/07/23 09:15:18;;;;;;;6.32;2.00;;;;;;;;;;4968801;28;20915;-62
2022/07/23 09:17:45;;;;;;;5.07;1.85;;;;;;;;;;4969400;28;20046;-61
2022/07/23 09:20:13;;;;;;;4.07;1.95;;;;;;;;;;4967969;28;20046;-62
2022/07/23 09:22:40;;;;;;;4.82;2.10;;;;;;;;;;4967756;28;20527;-62
2022/07/23 09:25:14;;;;;;;6.32;1.90;;;;;;;;;;4966140;28;20344;-61
2022/07/23 09:28:02;;;;;;;3.47;1.70;;;;;;;;;;4968409;28;20073;-61
2022/07/23 09:30:30;;;;;;;6.45;2.10;;;;;;;;;;4966861;28;20704;-62
2022/07/23 09:33:15;;;;;;;6.20;2.30;;;;;;;;;;4968260;28;20039;-61
2022/07/23 09:35:47;;;;;;;5.50;2.30;;;;;;;;;;4966818;28;20047;-62
2022/07/23 09:38:14;;;;;;;5.25;2.40;;;;;;;;;;4966273;28;21593;-62
2022/07/23 09:40:41;;;;;;;4.70;2.20;;;;;;;;;;4965419;28;20039;-60
2022/07/23 09:43:08;;;;;;;5.55;2.30;;;;;;;;;;4949960;28;20030;-62
2022/07/23 09:45:35;;;;;;;5.35;2.30;;;;;;;;;;4966252;28;20069;-61
2022/07/23 09:48:11;;;;;;;6.32;2.60;;;;;;;;;;4967816;28;20038;-62
2022/07/23 09:50:38;;;;;;;10.88;2.33;;;;;;;;;;4966991;28;20104;-61
2022/07/23 09:53:04;;;;;;;5.47;2.40;;;;;;;;;;4948259;28;20050;-61
2022/07/23 09:55:36;;;;;;;6.65;3.08;;;;;;;;;;4947623;28;20088;-62
2022/07/23 09:58:03;;;;;;;7.47;2.47;;;;;;;;;;4948607;28;20054;-61
2022/07/23 10:00:31;;;;;;;5.47;3.05;;;;;;;;;;4947998;28;20043;-61
2022/07/23 10:02:58;;;;;;;6.18;3.00;;;;;;;;;;4948447;28;20078;-62
2022/07/23 10:05:25;;;;;;;6.97;3.22;;;;;;;;;;4948557;28;20069;-62
2022/07/23 10:07:52;;;;;;;5.50;3.40;;;;;;;;;;4949010;28;20117;-61
2022/07/23 10:10:20;;;;;;;6.90;3.33;;;;;;;;;;4949160;28;20047;-62
2022/07/23 10:15:14;;;;;;;6.32;3.53;;;;;;;;;;4947940;28;20109;-62
2022/07/23 10:17:40;;;;;;;6.50;3.58;;;;;;;;;;4948627;28;20186;-62
2022/07/23 10:20:07;;;;;;;6.30;3.60;;;;;;;;;;4950420;28;20039;-60
2022/07/23 10:22:37;;;;;;;6.07;3.53;;;;;;;;;;4947685;28;20035;-62
2022/07/23 10:25:21;;;;;;;8.88;3.50;;;;;;;;;;4947203;28;20054;-61
2022/07/23 10:27:48;;;;;;;7.85;4.03;;;;;;;;;;4947701;28;20078;-62
2022/07/23 10:30:21;;;;;;;6.45;3.83;;;;;;;;;;4948000;28;20096;-60
2022/07/23 10:32:56;;;;;;;9.07;3.78;;;;;;;;;;4933262;28;20082;-59
2022/07/23 10:35:30;;;;;;;8.35;3.80;;;;;;;;;;4947325;28;20637;-60
2022/07/23 10:38:17;;;;;;;6.38;3.55;;;;;;;;;;4947639;28;20058;-61
2022/07/23 10:40:59;;;;;;;6.03;3.28;;;;;;;;;;4947464;28;20531;-61
2022/07/23 10:43:25;;;;;;;6.07;2.60;;;;;;;;;;4946987;28;20392;-60
2022/07/23 10:45:52;;;;;;;5.13;3.10;;;;;;;;;;4947134;28;20039;-61
2022/07/23 10:48:25;;;;;;;6.50;3.03;;;;;;;;;;4946814;28;20047;-61
2022/07/23 10:51:08;;;;;;;5.50;3.30;;;;;;;;;;4947210;28;20039;-61
2022/07/23 10:53:55;;;;;;;6.72;3.50;;;;;;;;;;4954007;28;20110;-60
2022/07/23 10:56:40;;;;;;;6.43;2.72;;;;;;;;;;4967474;28;20073;-61
2022/07/23 10:59:06;;;;;;;6.50;3.53;;;;;;;;;;4968153;28;20058;-61
2022/07/23 11:01:37;;;;;;;6.82;3.25;;;;;;;;;;4965906;28;20482;-61
2022/07/23 11:04:06;;;;;;;6.90;4.00;;;;;;;;;;4966357;28;20683;-61
2022/07/23 11:06:51;;;;;;;6.85;3.95;;;;;;;;;;4964389;28;20204;-61
2022/07/23 11:09:31;;;;;;;6.20;3.75;;;;;;;;;;4965612;28;20550;-61
2022/07/23 11:12:16;;;;;;;6.72;3.55;;;;;;;;;;4966691;28;21537;-61
2022/07/23 11:15:01;;;;;;;5.32;3.22;;;;;;;;;;4965363;28;20132;-61
2022/07/23 11:17:28;;;;;;;6.75;4.03;;;;;;;;;;4966987;28;20057;-62
2022/07/23 11:20:15;;;;;;;7.75;3.53;;;;;;;;;;4967070;28;20090;-62
2022/07/23 11:22:44;;;;;;;9.75;3.83;;;;;;;;;;4963937;28;20046;-62
2022/07/23 11:25:12;;;;;;;6.82;4.07;;;;;;;;;;4966419;28;20184;-61
2022/07/23 11:27:44;;;;;;;6.40;3.85;;;;;;;;;;4965827;28;20557;-61
2022/07/23 11:30:12;;;;;;;6.22;3.78;;;;;;;;;;4965873;28;20043;-60
2022/07/23 11:32:40;;;;;;;8.88;4.47;;;;;;;;;;4965078;28;20057;-60
2022/07/23 11:35:20;;;;;;;9.07;4.32;;;;;;;;;;4967072;28;20097;-61
2022/07/23 11:37:47;;;;;;;8.90;4.55;;;;;;;;;;4965556;28;20061;-61
2022/07/23 11:40:16;;;;;;;7.53;4.03;;;;;;;;;;4966294;28;20113;-62
2022/07/23 11:42:52;;;;;;;6.75;3.92;;;;;;;;;;4965924;28;20042;-62
2022/07/23 11:45:19;;;;;;;7.70;3.75;;;;;;;;;;4965578;28;20046;-61
2022/07/23 11:47:45;;;;;;;7.80;4.55;;;;;;;;;;4966198;28;20047;-61
2022/07/23 11:50:12;;;;;;;6.80;4.40;;;;;;;;;;4962752;28;20540;-61
2022/07/23 11:52:39;;;;;;;7.00;4.38;;;;;;;;;;4966682;28;20198;-62
2022/07/23 11:55:07;;;;;;;6.97;4.45;;;;;;;;;;4965554;28;20070;-61
2022/07/23 11:57:35;;;;;;;7.57;4.78;;;;;;;;;;4966170;28;20054;-61
2022/07/23 12:00:10;;;;;;;8.23;4.93;;;;;;;;;;4966979;28;20492;-61
2022/07/23 12:02:38;;;;;;;8.23;4.68;;;;;;;;;;4968552;28;20744;-62
2022/07/23 12:05:05;;;;;;;7.50;5.03;;;;;;;;;;4969354;28;20178;-61
2022/07/23 12:07:34;;;;;;;7.43;4.55;;;;;;;;;;4969853;28;20042;-61
2022/07/23 12:10:02;;;;;;;10.55;5.10;;;;;;;;;;4969837;28;20042;-61
2022/07/23 12:12:35;;;;;;;8.52;5.05;;;;;;;;;;4969611;28;20074;-61
2022/07/23 12:15:02;;;;;;;5.97;4.13;;;;;;;;;;4970039;28;20487;-61
2022/07/23 12:17:33;;;;;;;8.20;4.43;;;;;;;;;;4969242;28;20050;-61
2022/07/23 12:20:02;;;;;;;8.25;4.80;;;;;;;;;;4969906;28;20031;-61
2022/07/23 12:22:34;;;;;;;8.63;4.72;;;;;;;;;;4968242;28;20054;-61
2022/07/23 12:25:02;;;;;;;9.18;4.45;;;;;;;;;;4969929;28;20042;-62
2022/07/23 12:27:29;;;;;;;8.55;4.93;;;;;;;;;;4952834;28;20634;-62
2022/07/23 12:29:55;;;;;;;8.50;4.45;;;;;;;;;;4969193;28;20102;-62
2022/07/23 12:32:29;;;;;;;10.38;4.43;;;;;;;;;;4968421;28;20126;-61
2022/07/23 12:35:14;;;;;;;7.95;4.45;;;;;;;;;;4969937;28;20649;-62
2022/07/23 12:37:42;;;;;;;10.57;5.00;;;;;;;;;;4969950;28;20054;-61
2022/07/23 12:40:26;;;;;;;9.38;4.32;;;;;;;;;;4970821;28;20069;-61
2022/07/23 12:42:54;;;;;;;8.80;4.85;;;;;;;;;;4969451;28;20065;-62
2022/07/23 12:45:21;;;;;;;9.40;4.90;;;;;;;;;;4968859;28;20070;-61
2022/07/23 12:47:51;;;;;;;9.13;4.55;;;;;;;;;;4969110;28;20181;-62
2022/07/23 12:50:34;;;;;;;9.55;5.00;;;;;;;;;;4969797;28;20776;-61
2022/07/23 12:53:04;;;;;;;11.63;5.68;;;;;;;;;;4967584;28;20062;-62
2022/07/23 12:55:31;;;;;;;6.72;4.82;;;;;;;;;;4969619;28;20508;-62
2022/07/23 12:58:05;;;;;;;8.80;5.10;;;;;;;;;;4969373;28;20054;-61
2022/07/23 13:00:32;;;;;;;8.57;5.18;;;;;;;;;;4968777;28;20069;-61
2022/07/23 13:02:59;;;;;;;27.58;24.83;;;;;;;;;;4969082;28;20394;-61
2022/07/23 13:05:25;;;;;;;18.40;14.05;;;;;;;;;;4969160;28;20076;-61
2022/07/23 13:07:53;;;;;;;9.60;6.68;;;;;;;;;;4968481;28;20068;-61
2022/07/23 13:10:19;;;;;;;11.57;6.57;;;;;;;;;;4968753;28;20093;-61
2022/07/23 13:12:46;;;;;;;9.48;6.93;;;;;;;;;;4966733;28;20043;-60
2022/07/23 13:15:12;;;;;;;9.07;7.82;;;;;;;;;;4951069;28;20499;-61
2022/07/23 13:17:39;;;;;;;10.30;4.75;;;;;;;;;;4967499;28;20076;-61
2022/07/23 13:20:06;;;;;;;8.00;4.22;;;;;;;;;;4939046;28;20039;-61
2022/07/23 13:22:32;;;;;;;6.93;4.18;;;;;;;;;;4967022;28;20046;-60
2022/07/23 13:24:59;;;;;;;8.18;4.07;;;;;;;;;;4966931;28;20074;-61
2022/07/23 13:27:25;;;;;;;6.40;3.92;;;;;;;;;;4967626;28;20054;-60
2022/07/23 13:29:52;;;;;;;6.47;3.72;;;;;;;;;;4968025;28;20041;-60
2022/07/23 13:32:18;;;;;;;5.75;3.45;;;;;;;;;;4967376;28;20066;-60
2022/07/23 13:34:45;;;;;;;5.57;3.25;;;;;;;;;;4965733;28;20038;-60
2022/07/23 13:37:13;;;;;;;5.75;3.45;;;;;;;;;;4967398;28;20500;-60
2022/07/23 13:39:39;;;;;;;5.47;3.50;;;;;;;;;;4968291;28;20133;-61
2022/07/23 13:42:06;;;;;;;14.15;4.18;;;;;;;;;;4954299;28;20074;-61
2022/07/23 13:44:33;;;;;;;7.85;3.80;;;;;;;;;;4967255;28;20051;-60
2022/07/23 13:46:59;;;;;;;6.00;3.92;;;;;;;;;;4968844;28;20126;-60
2022/07/23 13:49:26;;;;;;;6.43;3.58;;;;;;;;;;4967041;28;20051;-60
2022/07/23 13:51:52;;;;;;;6.40;3.75;;;;;;;;;;4967888;28;21100;-60
2022/07/23 13:54:19;;;;;;;6.28;3.78;;;;;;;;;;4946122;28;20086;-59
2022/07/23 13:56:45;;;;;;;10.32;3.70;;;;;;;;;;4949293;28;20055;-60
2022/07/23 13:59:12;;;;;;;5.53;3.53;;;;;;;;;;4948610;28;20046;-60
2022/07/23 14:01:38;;;;;;;6.10;3.80;;;;;;;;;;4948151;28;20039;-61
2022/07/23 14:04:05;;;;;;;9.40;3.40;;;;;;;;;;4948110;28;20515;-62
2022/07/23 14:06:32;;;;;;;6.07;3.22;;;;;;;;;;4947578;28;20082;-63
2022/07/23 14:08:58;;;;;;;11.32;3.60;;;;;;;;;;4948692;28;20446;-63
2022/07/23 14:11:25;;;;;;;4.68;2.70;;;;;;;;;;4948536;28;20413;-62
2022/07/23 14:13:51;;;;;;;6.75;3.15;;;;;;;;;;4947885;28;20138;-62
2022/07/23 14:16:18;;;;;;;6.50;3.03;;;;;;;;;;4949094;28;20408;-63
2022/07/23 14:18:44;;;;;;;5.80;3.00;;;;;;;;;;4949890;28;20126;-62
2022/07/23 14:21:11;;;;;;;4.72;2.88;;;;;;;;;;4950594;28;20071;-62
2022/07/23 14:23:37;;;;;;;4.75;2.80;;;;;;;;;;4947802;28;20875;-61
2022/07/23 14:26:06;;;;;;;6.28;2.75;;;;;;;;;;4947658;28;20090;-68
2022/07/23 14:28:35;;;;;;;7.18;2.63;;;;;;;;;;4947142;28;20067;-62
2022/07/23 14:31:02;;;;;;;4.53;2.60;;;;;;;;;;4946397;28;20046;-62
2022/07/23 14:33:28;;;;;;;7.90;2.15;;;;;;;;;;4948270;28;20102;-62
2022/07/23 14:35:55;;;;;;;4.97;2.08;;;;;;;;;;4944919;28;20531;-63
2022/07/23 14:38:22;;;;;;;3.95;1.88;;;;;;;;;;4944889;28;20066;-63
2022/07/23 14:40:48;;;;;;;6.55;1.70;;;;;;;;;;4948044;28;20927;-62
2022/07/23 14:43:15;;;;;;;5.88;2.28;;;;;;;;;;4946784;28;20059;-62
2022/07/23 14:45:41;;;;;;;3.53;1.73;;;;;;;;;;4945641;28;21908;-62
2022/07/23 14:48:08;;;;;;;3.45;1.50;;;;;;;;;;4945376;28;20130;-62
2022/07/23 14:50:34;;;;;;;6.80;2.10;;;;;;;;;;4944426;28;20047;-62